createdAt,value
2023-02-06T00:01:44.313Z,3.70
2023-02-06T00:04:14.620Z,3.70
2023-02-06T00:06:43.161Z,3.70
2023-02-06T00:09:12.083Z,3.70
2023-02-06T00:11:40.237Z,3.70
2023-02-06T00:14:08.505Z,3.60
2023-02-06T00:16:37.295Z,3.60
2023-02-06T00:19:05.551Z,3.60
2023-02-06T00:21:35.541Z,3.60
2023-02-06T00:24:04.514Z,3.50
2023-02-06T00:26:33.698Z,3.50
2023-02-06T00:29:01.955Z,3.50
2023-02-06T00:31:30.263Z,3.50
2023-02-06T00:33:58.612Z,3.50
2023-02-06T00:36:27.226Z,3.40
2023-02-06T00:38:56.796Z,3.40
2023-02-06T00:41:24.932Z,3.40
2023-02-06T00:43:53.066Z,3.40
2023-02-06T00:46:21.306Z,3.40
2023-02-06T00:48:49.498Z,3.40
2023-02-06T00:51:17.717Z,3.30
2023-02-06T00:53:45.900Z,3.30
2023-02-06T00:56:16.018Z,3.30
2023-02-06T00:58:44.125Z,3.30
2023-02-06T01:01:12.976Z,3.30
2023-02-06T01:03:41.150Z,3.30
2023-02-06T01:06:10.766Z,3.30
2023-02-06T01:08:38.902Z,3.30
2023-02-06T01:11:12.224Z,3.20
2023-02-06T01:13:42.687Z,3.20
2023-02-06T01:16:13.500Z,3.20
2023-02-06T01:18:42.241Z,3.20
2023-02-06T01:21:11.564Z,3.20
2023-02-06T01:23:41.091Z,3.20
2023-02-06T01:26:11.161Z,3.10
2023-02-06T01:28:43.542Z,3.10
2023-02-06T01:31:13.471Z,3.00
2023-02-06T01:33:42.140Z,3.10
2023-02-06T01:36:11.270Z,3.10
2023-02-06T01:38:40.209Z,3.00
2023-02-06T01:41:10.073Z,3.00
2023-02-06T01:43:44.175Z,3.00
2023-02-06T01:46:12.534Z,3.00
2023-02-06T01:48:47.073Z,3.00
2023-02-06T01:51:19.866Z,2.90
2023-02-06T01:53:59.289Z,2.90
2023-02-06T01:56:32.378Z,2.80
2023-02-06T01:59:05.268Z,2.80
2023-02-06T02:01:34.804Z,2.80
2023-02-06T02:04:08.311Z,2.80
2023-02-06T02:06:36.885Z,2.80
2023-02-06T02:09:09.138Z,2.70
2023-02-06T02:11:41.817Z,2.80
2023-02-06T02:14:16.488Z,2.70
2023-02-06T02:17:04.065Z,2.70
2023-02-06T02:20:33.734Z,2.70
2023-02-06T02:23:30.757Z,2.70
2023-02-06T02:26:57.948Z,2.70
2023-02-06T02:30:10.537Z,2.70
2023-02-06T02:33:27.786Z,2.60
2023-02-06T02:36:10.124Z,2.60
2023-02-06T02:38:54.797Z,2.50
2023-02-06T02:41:35.377Z,2.50
2023-02-06T02:44:11.611Z,2.50
2023-02-06T02:46:45.610Z,2.50
2023-02-06T02:49:20.024Z,2.50
2023-02-06T02:51:52.288Z,2.50
2023-02-06T02:54:20.871Z,2.50
2023-02-06T02:56:49.060Z,2.40
2023-02-06T02:59:24.121Z,2.50
2023-02-06T03:02:00.434Z,2.50
2023-02-06T03:04:37.899Z,2.40
2023-02-06T03:07:27.381Z,2.40
2023-02-06T03:10:06.989Z,2.40
2023-02-06T03:12:45.606Z,2.40
2023-02-06T03:15:25.071Z,2.30
2023-02-06T03:18:02.203Z,2.30
2023-02-06T03:20:32.828Z,2.30
2023-02-06T03:23:05.104Z,2.30
2023-02-06T03:25:39.165Z,2.30
2023-02-06T03:28:17.315Z,2.20
2023-02-06T03:30:49.222Z,2.20
2023-02-06T03:33:23.476Z,2.20
2023-02-06T03:35:51.651Z,2.20
2023-02-06T03:38:21.297Z,2.20
2023-02-06T03:40:52.456Z,2.20
2023-02-06T03:43:23.676Z,2.20
2023-02-06T03:46:00.141Z,2.20
2023-02-06T03:48:34.449Z,2.20
2023-02-06T03:51:09.552Z,2.20
2023-02-06T03:53:43.191Z,2.20
2023-02-06T03:56:16.660Z,2.20
2023-02-06T03:58:44.739Z,2.20
2023-02-06T04:01:14.513Z,2.10
2023-02-06T04:03:42.613Z,2.10
2023-02-06T04:06:10.803Z,2.10
2023-02-06T04:08:40.514Z,2.10
2023-02-06T04:11:08.632Z,2.10
2023-02-06T04:13:36.888Z,2.10
2023-02-06T04:16:05.533Z,2.10
2023-02-06T04:18:33.764Z,2.10
2023-02-06T04:21:05.750Z,2.10
2023-02-06T04:23:34.456Z,2.00
2023-02-06T04:26:04.000Z,2.00
2023-02-06T04:28:32.407Z,2.00
2023-02-06T04:31:00.905Z,2.00
2023-02-06T04:33:29.104Z,2.00
2023-02-06T04:35:57.302Z,1.90
2023-02-06T04:38:25.445Z,1.90
2023-02-06T04:40:53.527Z,1.90
2023-02-06T04:43:22.958Z,1.90
2023-02-06T04:45:51.088Z,1.90
2023-02-06T04:48:19.192Z,1.80
2023-02-06T04:50:47.336Z,1.80
2023-02-06T04:53:15.440Z,1.80
2023-02-06T04:55:43.673Z,1.80
2023-02-06T04:58:12.736Z,1.80
2023-02-06T05:00:42.257Z,1.70
2023-02-06T05:03:10.431Z,1.70
2023-02-06T05:05:38.567Z,1.70
2023-02-06T05:08:06.936Z,1.60
2023-02-06T05:10:35.196Z,1.60
2023-02-06T05:13:03.685Z,1.60
2023-02-06T05:15:31.799Z,1.50
2023-02-06T05:18:01.297Z,1.50
2023-02-06T05:20:30.019Z,1.50
2023-02-06T05:22:58.793Z,1.40
2023-02-06T05:25:26.931Z,1.40
2023-02-06T05:27:55.135Z,1.40
2023-02-06T05:30:28.323Z,1.40
2023-02-06T05:33:02.642Z,1.40
2023-02-06T05:35:30.943Z,1.30
2023-02-06T05:38:00.905Z,1.30
2023-02-06T05:40:31.240Z,1.30
2023-02-06T05:43:02.309Z,1.30
2023-02-06T05:45:30.835Z,1.30
2023-02-06T05:48:03.065Z,1.30
2023-02-06T05:50:34.711Z,1.30
2023-02-06T05:53:04.843Z,1.30
2023-02-06T05:55:33.263Z,1.30
2023-02-06T05:58:01.771Z,1.30
2023-02-06T06:00:30.304Z,1.40
2023-02-06T06:02:59.006Z,1.40
2023-02-06T06:05:27.529Z,1.40
2023-02-06T06:07:57.361Z,1.40
2023-02-06T06:10:25.901Z,1.40
2023-02-06T06:12:54.314Z,1.40
2023-02-06T06:15:22.670Z,1.40
2023-02-06T06:17:54.539Z,1.40
2023-02-06T06:20:23.329Z,1.40
2023-02-06T06:22:51.819Z,1.40
2023-02-06T06:25:22.624Z,1.40
2023-02-06T06:27:51.091Z,1.40
2023-02-06T06:30:19.943Z,1.40
2023-02-06T06:32:50.424Z,1.40
2023-02-06T06:35:19.137Z,1.40
2023-02-06T06:37:47.618Z,1.40
2023-02-06T06:40:16.071Z,1.40
2023-02-06T06:42:45.904Z,1.50
2023-02-06T06:45:14.408Z,1.50
2023-02-06T06:47:42.851Z,1.50
2023-02-06T06:50:11.584Z,1.50
2023-02-06T06:52:41.818Z,1.50
2023-02-06T06:55:10.242Z,1.50
2023-02-06T06:57:38.700Z,1.50
2023-02-06T07:00:10.674Z,1.50
2023-02-06T07:02:39.217Z,1.50
2023-02-06T07:05:08.556Z,1.60
2023-02-06T07:07:39.061Z,1.60
2023-02-06T07:10:11.723Z,1.60
2023-02-06T07:12:42.088Z,1.60
2023-02-06T07:15:12.531Z,1.60
2023-02-06T07:17:41.118Z,1.60
2023-02-06T07:20:13.457Z,1.60
2023-02-06T07:22:42.097Z,1.70
2023-02-06T07:25:12.571Z,1.70
2023-02-06T07:27:41.188Z,1.70
2023-02-06T07:30:13.241Z,1.60
2023-02-06T07:32:41.987Z,1.70
2023-02-06T07:35:10.501Z,1.60
2023-02-06T07:37:40.430Z,1.70
2023-02-06T07:40:10.169Z,1.70
2023-02-06T07:42:38.632Z,1.70
2023-02-06T07:45:18.530Z,1.70
2023-02-06T07:47:46.952Z,1.70
2023-02-06T07:50:16.262Z,1.70
2023-02-06T07:52:44.854Z,1.70
2023-02-06T07:55:16.362Z,1.70
2023-02-06T07:57:44.794Z,1.80
2023-02-06T08:00:15.010Z,1.80
2023-02-06T08:02:44.833Z,1.80
2023-02-06T08:05:13.304Z,1.80
2023-02-06T08:07:44.604Z,1.80
2023-02-06T08:10:13.036Z,1.80
2023-02-06T08:12:41.477Z,1.80
2023-02-06T08:15:11.078Z,1.80
2023-02-06T08:17:39.529Z,1.80
2023-02-06T08:20:10.619Z,1.80
2023-02-06T08:22:41.850Z,1.80
2023-02-06T08:25:10.493Z,1.80
2023-02-06T08:27:39.014Z,1.80
2023-02-06T08:30:09.125Z,1.80
2023-02-06T08:32:37.831Z,1.90
2023-02-06T08:35:08.748Z,1.90
2023-02-06T08:37:37.189Z,1.90
2023-02-06T08:40:06.756Z,1.90
2023-02-06T08:42:35.967Z,1.90
2023-02-06T08:45:04.764Z,1.90
2023-02-06T08:47:35.238Z,1.90
2023-02-06T08:50:03.957Z,1.90
2023-02-06T08:52:33.739Z,1.90
2023-02-06T08:55:02.244Z,1.90
2023-02-06T08:57:30.619Z,1.90
2023-02-06T08:59:59.007Z,1.90
2023-02-06T09:02:27.329Z,1.90
2023-02-06T09:04:55.883Z,1.90
2023-02-06T09:07:24.499Z,1.90
2023-02-06T09:09:54.377Z,1.90
2023-02-06T09:12:22.763Z,1.90
2023-02-06T09:14:51.413Z,1.90
2023-02-06T09:17:19.860Z,1.90
2023-02-06T09:19:48.189Z,1.90
2023-02-06T09:22:16.732Z,1.90
2023-02-06T09:24:45.082Z,1.90
2023-02-06T09:27:15.506Z,2.00
2023-02-06T09:29:43.945Z,2.00
2023-02-06T09:32:14.452Z,2.00
2023-02-06T09:34:42.869Z,2.00
2023-02-06T09:37:11.528Z,2.00
2023-02-06T09:39:40.070Z,2.00
2023-02-06T09:42:17.566Z,2.10
2023-02-06T09:44:51.311Z,2.10
2023-02-06T09:47:27.363Z,2.10
2023-02-06T09:50:02.640Z,2.10
2023-02-06T09:53:02.263Z,2.10
2023-02-06T09:55:41.388Z,2.10
2023-02-06T09:58:24.751Z,2.20
2023-02-06T10:01:01.827Z,2.20
2023-02-06T10:04:12.998Z,2.20
2023-02-06T10:06:49.425Z,2.30
2023-02-06T10:09:25.638Z,2.30
2023-02-06T10:11:58.623Z,2.30
2023-02-06T10:14:40.538Z,2.40
2023-02-06T10:17:21.633Z,2.40
2023-02-06T10:19:58.103Z,2.50
2023-02-06T10:22:35.398Z,2.50
2023-02-06T10:25:22.840Z,2.50
2023-02-06T10:27:59.130Z,2.60
2023-02-06T10:30:50.313Z,2.60
2023-02-06T10:33:32.919Z,2.70
2023-02-06T10:36:14.978Z,2.70
2023-02-06T10:39:16.017Z,2.70
2023-02-06T10:41:56.788Z,2.80
2023-02-06T10:44:33.130Z,2.80
2023-02-06T10:47:03.840Z,2.90
2023-02-06T10:49:41.104Z,2.90
2023-02-06T10:52:23.158Z,2.90
2023-02-06T10:54:57.924Z,3.00
2023-02-06T10:57:29.663Z,3.00
2023-02-06T11:00:02.320Z,3.10
2023-02-06T11:02:49.021Z,3.10
2023-02-06T11:05:26.559Z,3.20
2023-02-06T11:08:00.574Z,3.20
2023-02-06T11:10:29.609Z,3.30
2023-02-06T11:13:05.491Z,3.30
2023-02-06T11:15:40.407Z,3.40
2023-02-06T11:18:18.875Z,3.40
2023-02-06T11:20:52.050Z,3.40
2023-02-06T11:23:26.182Z,3.50
2023-02-06T11:26:06.991Z,3.50
2023-02-06T11:28:39.538Z,3.60
2023-02-06T11:31:11.855Z,3.60
2023-02-06T11:33:49.352Z,3.60
2023-02-06T11:36:28.394Z,3.70
2023-02-06T11:39:00.535Z,3.70
2023-02-06T11:41:30.610Z,3.80
2023-02-06T11:44:06.576Z,3.80
2023-02-06T11:46:37.057Z,3.80
2023-02-06T11:49:26.746Z,3.90
2023-02-06T11:51:59.713Z,3.90
2023-02-06T11:54:31.414Z,4.00
2023-02-06T11:57:08.046Z,4.00
2023-02-06T11:59:50.109Z,4.10
2023-02-06T12:02:34.222Z,4.10
2023-02-06T12:05:13.063Z,4.10
2023-02-06T12:07:47.288Z,4.20
2023-02-06T12:10:18.297Z,4.20
2023-02-06T12:12:53.130Z,4.20
2023-02-06T12:15:46.556Z,4.20
2023-02-06T12:18:21.738Z,4.30
2023-02-06T12:20:59.083Z,4.30
2023-02-06T12:23:34.776Z,4.40
2023-02-06T12:26:09.961Z,4.40
2023-02-06T12:28:54.858Z,4.40
2023-02-06T12:31:32.221Z,4.50
2023-02-06T12:34:13.995Z,4.50
2023-02-06T12:37:00.602Z,4.60
2023-02-06T12:39:33.652Z,4.60
2023-02-06T12:42:33.164Z,4.60
2023-02-06T12:45:12.649Z,4.70
2023-02-06T12:47:49.979Z,4.80
2023-02-06T12:50:24.585Z,4.80
2023-02-06T12:53:02.334Z,4.80
2023-02-06T12:55:36.520Z,4.90
2023-02-06T12:58:28.104Z,4.90
2023-02-06T13:01:34.143Z,4.90
2023-02-06T13:04:09.515Z,4.90
2023-02-06T13:06:51.345Z,5.00
2023-02-06T13:09:26.792Z,5.00
2023-02-06T13:12:07.120Z,5.10
2023-02-06T13:14:38.754Z,5.10
2023-02-06T13:17:11.924Z,5.10
2023-02-06T13:20:05.428Z,5.20
2023-02-06T13:22:55.687Z,5.20
2023-02-06T13:25:55.549Z,5.20
2023-02-06T13:29:22.505Z,5.30
2023-02-06T13:31:50.947Z,5.30
2023-02-06T13:34:20.067Z,5.30
2023-02-06T13:36:54.644Z,5.40
2023-02-06T13:39:33.793Z,5.40
2023-02-06T13:42:38.972Z,5.40
2023-02-06T13:45:17.040Z,5.50
2023-02-06T13:48:24.420Z,5.50
2023-02-06T13:51:38.796Z,5.50
2023-02-06T13:54:53.126Z,5.50
2023-02-06T13:57:41.238Z,5.60
2023-02-06T14:00:16.898Z,5.60
2023-02-06T14:02:50.343Z,5.60
2023-02-06T14:05:23.986Z,5.60
2023-02-06T14:08:09.599Z,5.70
2023-02-06T14:11:34.687Z,5.60
2023-02-06T14:14:33.740Z,5.70
2023-02-06T14:17:17.913Z,5.70
2023-02-06T14:20:00.519Z,5.70
2023-02-06T14:22:39.303Z,5.70
2023-02-06T14:25:32.524Z,5.70
2023-02-06T14:28:17.634Z,5.80
2023-02-06T14:31:00.143Z,5.80
2023-02-06T14:33:57.710Z,5.80
2023-02-06T14:36:51.695Z,5.90
2023-02-06T14:39:49.805Z,5.90
2023-02-06T14:42:25.518Z,5.90
2023-02-06T14:44:59.114Z,5.90
2023-02-06T14:47:33.971Z,5.90
2023-02-06T14:50:03.485Z,5.90
2023-02-06T14:52:34.823Z,6.00
2023-02-06T14:55:30.555Z,6.00
2023-02-06T14:57:59.308Z,6.00
2023-02-06T15:00:29.369Z,6.00
2023-02-06T15:03:15.225Z,6.00
2023-02-06T15:05:44.770Z,6.00
2023-02-06T15:08:20.491Z,6.00
2023-02-06T15:10:57.689Z,6.00
2023-02-06T15:13:34.838Z,6.00
2023-02-06T15:16:08.390Z,6.00
2023-02-06T15:18:39.566Z,6.00
2023-02-06T15:21:12.619Z,6.00
2023-02-06T15:24:06.482Z,6.00
2023-02-06T15:26:46.910Z,6.00
2023-02-06T15:29:23.421Z,6.00
2023-02-06T15:31:56.663Z,5.90
2023-02-06T15:35:43.964Z,5.90
2023-02-06T15:38:33.080Z,5.90
2023-02-06T15:41:04.793Z,5.90
2023-02-06T15:43:35.462Z,5.90
2023-02-06T15:46:07.745Z,5.90
2023-02-06T15:48:43.718Z,6.00
2023-02-06T15:51:23.796Z,5.90
2023-02-06T15:54:06.027Z,6.00
2023-02-06T15:56:38.189Z,6.00
2023-02-06T15:59:16.100Z,6.00
2023-02-06T16:01:50.038Z,6.00
2023-02-06T16:04:28.080Z,6.00
2023-02-06T16:07:15.799Z,6.00
2023-02-06T16:09:51.051Z,6.00
2023-02-06T16:12:21.264Z,6.00
2023-02-06T16:14:57.872Z,6.00
2023-02-06T16:17:34.029Z,6.00
2023-02-06T16:20:04.848Z,6.00
2023-02-06T16:22:38.381Z,5.90
2023-02-06T16:25:26.905Z,5.90
2023-02-06T16:27:56.101Z,5.90
2023-02-06T16:30:30.012Z,5.90
2023-02-06T16:33:09.552Z,5.80
2023-02-06T16:35:37.835Z,5.80
2023-02-06T16:38:11.125Z,5.80
2023-02-06T16:40:39.320Z,5.80
2023-02-06T16:43:11.834Z,5.80
2023-02-06T16:45:40.633Z,5.80
2023-02-06T16:48:14.259Z,5.70
2023-02-06T16:50:43.413Z,5.70
2023-02-06T16:53:21.084Z,5.70
2023-02-06T16:55:50.184Z,5.70
2023-02-06T16:58:24.305Z,5.70
2023-02-06T17:00:59.732Z,5.70
2023-02-06T17:03:28.119Z,5.70
2023-02-06T17:05:56.785Z,5.70
2023-02-06T17:08:27.010Z,5.60
2023-02-06T17:10:55.416Z,5.60
2023-02-06T17:13:25.620Z,5.50
2023-02-06T17:15:54.156Z,5.50
2023-02-06T17:18:24.139Z,5.50
2023-02-06T17:20:56.162Z,5.50
2023-02-06T17:23:25.908Z,5.50
2023-02-06T17:25:54.104Z,5.40
2023-02-06T17:28:22.259Z,5.40
2023-02-06T17:30:50.854Z,5.40
2023-02-06T17:33:19.168Z,5.40
2023-02-06T17:35:49.311Z,5.30
2023-02-06T17:38:17.450Z,5.30
2023-02-06T17:40:47.092Z,5.30
2023-02-06T17:43:15.215Z,5.30
2023-02-06T17:45:43.759Z,5.20
2023-02-06T17:48:12.273Z,5.20
2023-02-06T17:50:41.828Z,5.20
2023-02-06T17:53:13.793Z,5.10
2023-02-06T17:55:44.882Z,5.10
2023-02-06T17:58:14.348Z,5.10
2023-02-06T18:00:42.803Z,5.00
2023-02-06T18:03:11.291Z,5.00
2023-02-06T18:05:39.448Z,4.90
2023-02-06T18:08:07.528Z,4.90
2023-02-06T18:10:36.013Z,4.90
2023-02-06T18:13:04.268Z,4.80
2023-02-06T18:15:33.762Z,4.80
2023-02-06T18:18:01.885Z,4.80
2023-02-06T18:20:30.049Z,4.80
2023-02-06T18:22:58.261Z,4.80
2023-02-06T18:25:26.444Z,4.70
2023-02-06T18:27:54.679Z,4.70
2023-02-06T18:30:22.962Z,4.70
2023-02-06T18:32:52.439Z,4.60
2023-02-06T18:35:20.858Z,4.60
2023-02-06T18:37:50.051Z,4.60
2023-02-06T18:40:18.496Z,4.50
2023-02-06T18:42:51.926Z,4.50
2023-02-06T18:45:21.459Z,4.50
2023-02-06T18:47:51.338Z,4.50
2023-02-06T18:50:22.173Z,4.50
2023-02-06T18:52:51.471Z,4.50
2023-02-06T18:55:20.278Z,4.50
2023-02-06T18:57:48.547Z,4.50
2023-02-06T19:00:20.047Z,4.50
2023-02-06T19:02:48.463Z,4.50
2023-02-06T19:05:17.412Z,4.50
2023-02-06T19:07:52.135Z,4.50
2023-02-06T19:10:22.079Z,4.50
2023-02-06T19:12:50.574Z,4.50
2023-02-06T19:15:19.016Z,4.50
2023-02-06T19:17:47.198Z,4.40
2023-02-06T19:20:15.394Z,4.40
2023-02-06T19:22:43.633Z,4.40
2023-02-06T19:25:14.721Z,4.40
2023-02-06T19:27:43.606Z,4.30
2023-02-06T19:30:13.996Z,4.30
2023-02-06T19:32:43.282Z,4.30
2023-02-06T19:35:12.105Z,4.30
2023-02-06T19:37:40.469Z,4.30
2023-02-06T19:40:09.535Z,4.20
2023-02-06T19:42:40.648Z,4.20
2023-02-06T19:45:09.322Z,4.20
2023-02-06T19:47:37.612Z,4.10
2023-02-06T19:50:07.140Z,4.10
2023-02-06T19:52:35.406Z,4.10
2023-02-06T19:55:04.046Z,4.00
2023-02-06T19:57:32.289Z,4.00
2023-02-06T20:00:01.776Z,4.00
2023-02-06T20:02:29.983Z,3.90
2023-02-06T20:04:58.140Z,3.90
2023-02-06T20:07:26.240Z,3.80
2023-02-06T20:09:55.851Z,3.80
2023-02-06T20:12:24.033Z,3.70
2023-02-06T20:14:52.287Z,3.70
2023-02-06T20:17:22.656Z,3.70
2023-02-06T20:19:50.810Z,3.60
2023-02-06T20:22:19.625Z,3.60
2023-02-06T20:24:47.863Z,3.60
2023-02-06T20:27:15.957Z,3.50
2023-02-06T20:29:45.724Z,3.50
2023-02-06T20:32:15.536Z,3.50
2023-02-06T20:34:45.163Z,3.50
2023-02-06T20:37:14.229Z,3.50
2023-02-06T20:39:42.329Z,3.40
2023-02-06T20:42:10.544Z,3.40
2023-02-06T20:44:39.766Z,3.30
2023-02-06T20:47:08.031Z,3.30
2023-02-06T20:49:36.149Z,3.30
2023-02-06T20:52:06.262Z,3.30
2023-02-06T20:54:34.436Z,3.20
2023-02-06T20:57:02.607Z,3.20
2023-02-06T20:59:30.893Z,3.20
2023-02-06T21:01:59.381Z,3.20
2023-02-06T21:04:27.923Z,3.10
2023-02-06T21:06:56.430Z,3.10
2023-02-06T21:09:25.998Z,3.10
2023-02-06T21:11:54.297Z,3.10
2023-02-06T21:14:25.400Z,3.00
2023-02-06T21:16:53.518Z,3.00
2023-02-06T21:19:23.187Z,3.00
2023-02-06T21:21:51.491Z,3.00
2023-02-06T21:24:19.771Z,3.00
2023-02-06T21:26:49.236Z,3.00
2023-02-06T21:29:17.761Z,3.00
2023-02-06T21:31:46.536Z,3.00
2023-02-06T21:34:17.677Z,3.00
2023-02-06T21:36:46.614Z,3.00
2023-02-06T21:39:18.601Z,3.00
2023-02-06T21:41:47.399Z,2.90
2023-02-06T21:44:16.839Z,2.90
2023-02-06T21:46:44.959Z,2.90
2023-02-06T21:49:14.219Z,2.90
2023-02-06T21:51:42.595Z,2.90
2023-02-06T21:54:10.857Z,2.80
2023-02-06T21:56:39.714Z,2.80
2023-02-06T21:59:08.697Z,2.80
2023-02-06T22:01:40.503Z,2.70
2023-02-06T22:04:10.898Z,2.70
2023-02-06T22:06:40.060Z,2.70
2023-02-06T22:09:15.049Z,2.70
2023-02-06T22:11:44.739Z,2.60
2023-02-06T22:14:17.575Z,2.60
2023-02-06T22:16:47.523Z,2.60
2023-02-06T22:19:16.626Z,2.60
2023-02-06T22:21:44.824Z,2.60
2023-02-06T22:24:13.556Z,2.60
2023-02-06T22:26:42.694Z,2.60
2023-02-06T22:29:15.881Z,2.50
2023-02-06T22:31:46.485Z,2.50
2023-02-06T22:34:18.341Z,2.50
2023-02-06T22:36:46.791Z,2.50
2023-02-06T22:39:16.323Z,2.50
2023-02-06T22:41:47.058Z,2.40
2023-02-06T22:44:17.098Z,2.40
2023-02-06T22:46:49.818Z,2.40
2023-02-06T22:49:19.726Z,2.40
2023-02-06T22:51:48.244Z,2.30
2023-02-06T22:54:16.487Z,2.30
2023-02-06T22:56:45.757Z,2.30
2023-02-06T22:59:17.882Z,2.30
2023-02-06T23:01:49.515Z,2.30
2023-02-06T23:04:21.056Z,2.30
2023-02-06T23:06:50.613Z,2.20
2023-02-06T23:09:23.193Z,2.20
2023-02-06T23:11:52.715Z,2.20
2023-02-06T23:14:21.854Z,2.10
2023-02-06T23:16:52.355Z,2.10
2023-02-06T23:19:21.393Z,2.10
2023-02-06T23:21:51.987Z,2.10
2023-02-06T23:24:21.324Z,2.00
2023-02-06T23:26:53.188Z,2.00
2023-02-06T23:29:23.839Z,2.00
2023-02-06T23:31:53.820Z,1.90
2023-02-06T23:34:24.330Z,1.90
2023-02-06T23:36:52.837Z,1.80
2023-02-06T23:39:21.243Z,1.80
2023-02-06T23:41:49.319Z,1.80
2023-02-06T23:44:18.097Z,1.80
2023-02-06T23:46:46.171Z,1.80
2023-02-06T23:49:16.276Z,1.80
2023-02-06T23:51:44.610Z,1.70
2023-02-06T23:54:12.725Z,1.70
2023-02-06T23:56:40.832Z,1.70
2023-02-06T23:59:09.612Z,1.70
